sensor_id;sensor_type;location;lat;lon;timestamp;P1;durP1;ratioP1;P2;durP2;ratioP2
5460;SDS011;2753;49.196;8.286;2022-08-26T00:00:31;7.57;;;5.23;;
5460;SDS011;2753;49.196;8.286;2022-08-26T00:02:57;13.70;;;5.70;;
5460;SDS011;2753;49.196;8.286;2022-08-26T00:05:23;6.60;;;6.00;;
5460;SDS011;2753;49.196;8.286;2022-08-26T00:07:49;5.90;;;4.83;;
5460;SDS011;2753;49.196;8.286;2022-08-26T00:10:16;13.00;;;5.23;;
5460;SDS011;2753;49.196;8.286;2022-08-26T00:12:42;8.90;;;5.30;;
5460;SDS011;2753;49.196;8.286;2022-08-26T00:15:09;6.30;;;5.70;;
5460;SDS011;2753;49.196;8.286;2022-08-26T00:17:36;5.50;;;4.97;;
5460;SDS011;2753;49.196;8.286;2022-08-26T00:20:03;8.10;;;4.70;;
5460;SDS011;2753;49.196;8.286;2022-08-26T00:22:31;7.20;;;4.97;;
5460;SDS011;2753;49.196;8.286;2022-08-26T00:24:56;7.93;;;5.10;;
5460;SDS011;2753;49.196;8.286;2022-08-26T00:27:22;12.17;;;5.63;;
5460;SDS011;2753;49.196;8.286;2022-08-26T00:29:48;7.10;;;5.70;;
5460;SDS011;2753;49.196;8.286;2022-08-26T00:32:13;6.47;;;4.67;;
5460;SDS011;2753;49.196;8.286;2022-08-26T00:34:39;9.70;;;5.20;;
5460;SDS011;2753;49.196;8.286;2022-08-26T00:37:05;6.97;;;5.60;;
5460;SDS011;2753;49.196;8.286;2022-08-26T00:39:31;6.83;;;5.10;;
5460;SDS011;2753;49.196;8.286;2022-08-26T00:41:56;6.80;;;5.10;;
5460;SDS011;2753;49.196;8.286;2022-08-26T00:44:22;5.73;;;5.30;;
5460;SDS011;2753;49.196;8.286;2022-08-26T00:46:50;6.20;;;5.13;;
5460;SDS011;2753;49.196;8.286;2022-08-26T00:49:55;8.63;;;5.30;;
5460;SDS011;2753;49.196;8.286;2022-08-26T00:52:16;7.73;;;5.73;;
5460;SDS011;2753;49.196;8.286;2022-08-26T00:54:49;17.07;;;5.37;;
5460;SDS011;2753;49.196;8.286;2022-08-26T00:57:31;7.33;;;4.80;;
5460;SDS011;2753;49.196;8.286;2022-08-26T00:59:59;13.33;;;6.43;;
5460;SDS011;2753;49.196;8.286;2022-08-26T01:02:27;5.90;;;5.13;;
5460;SDS011;2753;49.196;8.286;2022-08-26T01:04:54;8.50;;;6.10;;
5460;SDS011;2753;49.196;8.286;2022-08-26T01:07:26;8.20;;;5.30;;
5460;SDS011;2753;49.196;8.286;2022-08-26T01:09:54;8.70;;;5.40;;
5460;SDS011;2753;49.196;8.286;2022-08-26T01:12:22;8.20;;;5.80;;
5460;SDS011;2753;49.196;8.286;2022-08-26T01:14:50;6.87;;;5.30;;
5460;SDS011;2753;49.196;8.286;2022-08-26T01:17:16;8.90;;;5.90;;
5460;SDS011;2753;49.196;8.286;2022-08-26T01:19:43;9.80;;;5.80;;
5460;SDS011;2753;49.196;8.286;2022-08-26T01:24:41;5.63;;;5.13;;
5460;SDS011;2753;49.196;8.286;2022-08-26T01:27:08;5.80;;;5.20;;
5460;SDS011;2753;49.196;8.286;2022-08-26T01:29:37;6.47;;;5.87;;
5460;SDS011;2753;49.196;8.286;2022-08-26T01:32:05;16.23;;;6.30;;
5460;SDS011;2753;49.196;8.286;2022-08-26T01:34:35;8.40;;;5.97;;
5460;SDS011;2753;49.196;8.286;2022-08-26T01:37:21;9.57;;;6.20;;
5460;SDS011;2753;49.196;8.286;2022-08-26T01:39:53;9.77;;;5.80;;
5460;SDS011;2753;49.196;8.286;2022-08-26T01:42:21;11.23;;;5.67;;
5460;SDS011;2753;49.196;8.286;2022-08-26T01:44:56;9.83;;;6.00;;
5460;SDS011;2753;49.196;8.286;2022-08-26T01:47:28;7.60;;;5.47;;
5460;SDS011;2753;49.196;8.286;2022-08-26T01:49:55;5.70;;;5.20;;
5460;SDS011;2753;49.196;8.286;2022-08-26T01:52:26;6.03;;;5.50;;
5460;SDS011;2753;49.196;8.286;2022-08-26T01:54:54;12.17;;;6.43;;
5460;SDS011;2753;49.196;8.286;2022-08-26T01:57:22;9.03;;;6.00;;
5460;SDS011;2753;49.196;8.286;2022-08-26T01:59:49;6.20;;;5.60;;
5460;SDS011;2753;49.196;8.286;2022-08-26T02:02:16;14.83;;;6.57;;
5460;SDS011;2753;49.196;8.286;2022-08-26T02:04:50;8.13;;;5.60;;
5460;SDS011;2753;49.196;8.286;2022-08-26T02:07:21;9.10;;;6.00;;
5460;SDS011;2753;49.196;8.286;2022-08-26T02:09:48;10.03;;;5.80;;
5460;SDS011;2753;49.196;8.286;2022-08-26T02:12:14;7.10;;;6.13;;
5460;SDS011;2753;49.196;8.286;2022-08-26T02:14:43;6.57;;;5.73;;
5460;SDS011;2753;49.196;8.286;2022-08-26T02:17:16;6.10;;;5.60;;
5460;SDS011;2753;49.196;8.286;2022-08-26T02:19:46;7.47;;;5.80;;
5460;SDS011;2753;49.196;8.286;2022-08-26T02:22:16;5.93;;;5.27;;
5460;SDS011;2753;49.196;8.286;2022-08-26T02:24:54;7.20;;;6.00;;
5460;SDS011;2753;49.196;8.286;2022-08-26T02:27:26;10.00;;;5.60;;
5460;SDS011;2753;49.196;8.286;2022-08-26T02:29:56;6.53;;;5.27;;
5460;SDS011;2753;49.196;8.286;2022-08-26T02:32:26;10.33;;;6.40;;
5460;SDS011;2753;49.196;8.286;2022-08-26T02:34:52;11.50;;;6.20;;
5460;SDS011;2753;49.196;8.286;2022-08-26T02:37:18;12.43;;;5.37;;
5460;SDS011;2753;49.196;8.286;2022-08-26T02:39:44;6.70;;;6.07;;
5460;SDS011;2753;49.196;8.286;2022-08-26T02:42:09;7.57;;;5.60;;
5460;SDS011;2753;49.196;8.286;2022-08-26T02:44:35;6.17;;;5.60;;
5460;SDS011;2753;49.196;8.286;2022-08-26T02:47:01;10.57;;;6.03;;
5460;SDS011;2753;49.196;8.286;2022-08-26T02:49:27;8.10;;;5.27;;
5460;SDS011;2753;49.196;8.286;2022-08-26T02:51:54;6.00;;;5.40;;
5460;SDS011;2753;49.196;8.286;2022-08-26T02:54:20;12.17;;;6.03;;
5460;SDS011;2753;49.196;8.286;2022-08-26T02:56:47;9.40;;;5.70;;
5460;SDS011;2753;49.196;8.286;2022-08-26T02:59:13;10.80;;;5.27;;
5460;SDS011;2753;49.196;8.286;2022-08-26T03:01:39;6.83;;;5.73;;
5460;SDS011;2753;49.196;8.286;2022-08-26T03:04:07;15.13;;;6.17;;
5460;SDS011;2753;49.196;8.286;2022-08-26T03:06:35;6.63;;;6.00;;
5460;SDS011;2753;49.196;8.286;2022-08-26T03:09:01;12.70;;;6.10;;
5460;SDS011;2753;49.196;8.286;2022-08-26T03:11:27;6.83;;;6.23;;
5460;SDS011;2753;49.196;8.286;2022-08-26T03:13:55;9.00;;;6.10;;
5460;SDS011;2753;49.196;8.286;2022-08-26T03:16:21;6.47;;;5.87;;
5460;SDS011;2753;49.196;8.286;2022-08-26T03:18:47;14.70;;;6.20;;
5460;SDS011;2753;49.196;8.286;2022-08-26T03:21:14;8.87;;;6.20;;
5460;SDS011;2753;49.196;8.286;2022-08-26T03:23:41;6.63;;;5.90;;
5460;SDS011;2753;49.196;8.286;2022-08-26T03:26:09;10.37;;;6.03;;
5460;SDS011;2753;49.196;8.286;2022-08-26T03:28:36;10.97;;;7.20;;
5460;SDS011;2753;49.196;8.286;2022-08-26T03:31:25;10.97;;;7.03;;
5460;SDS011;2753;49.196;8.286;2022-08-26T03:33:52;10.00;;;6.13;;
5460;SDS011;2753;49.196;8.286;2022-08-26T03:36:18;11.53;;;7.30;;
5460;SDS011;2753;49.196;8.286;2022-08-26T03:38:44;8.03;;;6.60;;
5460;SDS011;2753;49.196;8.286;2022-08-26T03:41:10;11.30;;;6.40;;
5460;SDS011;2753;49.196;8.286;2022-08-26T03:43:36;11.33;;;6.63;;
5460;SDS011;2753;49.196;8.286;2022-08-26T03:46:05;8.00;;;6.50;;
5460;SDS011;2753;49.196;8.286;2022-08-26T03:48:35;9.47;;;6.53;;
5460;SDS011;2753;49.196;8.286;2022-08-26T03:51:02;9.43;;;7.70;;
5460;SDS011;2753;49.196;8.286;2022-08-26T03:53:34;8.50;;;7.27;;
5460;SDS011;2753;49.196;8.286;2022-08-26T03:56:00;8.00;;;7.20;;
5460;SDS011;2753;49.196;8.286;2022-08-26T03:58:27;8.73;;;7.73;;
5460;SDS011;2753;49.196;8.286;2022-08-26T04:00:52;10.33;;;6.80;;
5460;SDS011;2753;49.196;8.286;2022-08-26T04:03:18;9.83;;;7.50;;
5460;SDS011;2753;49.196;8.286;2022-08-26T04:06:04;8.90;;;7.07;;
5460;SDS011;2753;49.196;8.286;2022-08-26T04:08:29;12.20;;;7.50;;
5460;SDS011;2753;49.196;8.286;2022-08-26T04:10:55;8.20;;;6.97;;
5460;SDS011;2753;49.196;8.286;2022-08-26T04:13:21;9.30;;;7.27;;
5460;SDS011;2753;49.196;8.286;2022-08-26T04:15:47;13.23;;;7.70;;
5460;SDS011;2753;49.196;8.286;2022-08-26T04:18:12;11.27;;;7.37;;
5460;SDS011;2753;49.196;8.286;2022-08-26T04:20:38;13.20;;;7.60;;
5460;SDS011;2753;49.196;8.286;2022-08-26T04:23:03;11.60;;;7.80;;
5460;SDS011;2753;49.196;8.286;2022-08-26T04:25:29;8.00;;;7.30;;
5460;SDS011;2753;49.196;8.286;2022-08-26T04:27:55;7.30;;;6.60;;
5460;SDS011;2753;49.196;8.286;2022-08-26T04:33:15;9.73;;;7.10;;
5460;SDS011;2753;49.196;8.286;2022-08-26T04:35:40;9.57;;;6.80;;
5460;SDS011;2753;49.196;8.286;2022-08-26T04:38:08;30.47;;;7.60;;
5460;SDS011;2753;49.196;8.286;2022-08-26T04:40:34;8.70;;;6.90;;
5460;SDS011;2753;49.196;8.286;2022-08-26T04:43:00;15.70;;;7.57;;
5460;SDS011;2753;49.196;8.286;2022-08-26T04:45:26;9.87;;;6.83;;
5460;SDS011;2753;49.196;8.286;2022-08-26T04:47:53;8.57;;;7.50;;
5460;SDS011;2753;49.196;8.286;2022-08-26T04:50:20;18.00;;;7.07;;
5460;SDS011;2753;49.196;8.286;2022-08-26T04:52:47;10.37;;;7.83;;
5460;SDS011;2753;49.196;8.286;2022-08-26T04:55:13;10.00;;;6.87;;
5460;SDS011;2753;49.196;8.286;2022-08-26T04:57:40;13.30;;;6.70;;
5460;SDS011;2753;49.196;8.286;2022-08-26T05:00:06;12.23;;;7.67;;
5460;SDS011;2753;49.196;8.286;2022-08-26T05:02:35;12.60;;;8.47;;
5460;SDS011;2753;49.196;8.286;2022-08-26T05:05:01;24.97;;;10.20;;
5460;SDS011;2753;49.196;8.286;2022-08-26T05:07:29;42.77;;;11.23;;
5460;SDS011;2753;49.196;8.286;2022-08-26T05:09:55;9.67;;;7.73;;
5460;SDS011;2753;49.196;8.286;2022-08-26T05:12:21;12.37;;;7.53;;
5460;SDS011;2753;49.196;8.286;2022-08-26T05:14:47;16.40;;;7.30;;
5460;SDS011;2753;49.196;8.286;2022-08-26T05:17:13;13.63;;;7.80;;
5460;SDS011;2753;49.196;8.286;2022-08-26T05:19:38;12.00;;;7.73;;
5460;SDS011;2753;49.196;8.286;2022-08-26T05:22:04;8.87;;;7.97;;
5460;SDS011;2753;49.196;8.286;2022-08-26T05:24:30;11.53;;;8.23;;
5460;SDS011;2753;49.196;8.286;2022-08-26T05:26:55;10.73;;;7.70;;
5460;SDS011;2753;49.196;8.286;2022-08-26T05:29:21;10.40;;;7.30;;
5460;SDS011;2753;49.196;8.286;2022-08-26T05:31:49;11.43;;;7.70;;
5460;SDS011;2753;49.196;8.286;2022-08-26T05:34:16;11.43;;;7.80;;
5460;SDS011;2753;49.196;8.286;2022-08-26T05:36:41;7.97;;;6.20;;
5460;SDS011;2753;49.196;8.286;2022-08-26T05:39:07;10.63;;;7.63;;
5460;SDS011;2753;49.196;8.286;2022-08-26T05:41:34;13.47;;;8.10;;
5460;SDS011;2753;49.196;8.286;2022-08-26T05:44:03;10.40;;;7.50;;
5460;SDS011;2753;49.196;8.286;2022-08-26T05:46:31;14.67;;;8.00;;
5460;SDS011;2753;49.196;8.286;2022-08-26T05:48:59;11.70;;;7.50;;
5460;SDS011;2753;49.196;8.286;2022-08-26T05:51:24;15.83;;;7.90;;
5460;SDS011;2753;49.196;8.286;2022-08-26T05:53:50;17.80;;;8.20;;
5460;SDS011;2753;49.196;8.286;2022-08-26T05:56:16;14.37;;;7.60;;
5460;SDS011;2753;49.196;8.286;2022-08-26T05:58:44;14.93;;;8.03;;
5460;SDS011;2753;49.196;8.286;2022-08-26T06:01:11;14.33;;;7.40;;
5460;SDS011;2753;49.196;8.286;2022-08-26T06:03:40;13.37;;;8.27;;
5460;SDS011;2753;49.196;8.286;2022-08-26T06:06:09;13.40;;;8.10;;
5460;SDS011;2753;49.196;8.286;2022-08-26T06:08:40;17.13;;;8.70;;
5460;SDS011;2753;49.196;8.286;2022-08-26T06:11:07;11.17;;;8.63;;
5460;SDS011;2753;49.196;8.286;2022-08-26T06:13:36;11.43;;;8.17;;
5460;SDS011;2753;49.196;8.286;2022-08-26T06:16:07;16.33;;;9.90;;
5460;SDS011;2753;49.196;8.286;2022-08-26T06:18:35;14.70;;;8.90;;
5460;SDS011;2753;49.196;8.286;2022-08-26T06:21:11;18.43;;;7.70;;
5460;SDS011;2753;49.196;8.286;2022-08-26T06:23:37;17.60;;;10.40;;
5460;SDS011;2753;49.196;8.286;2022-08-26T06:26:24;15.90;;;7.50;;
5460;SDS011;2753;49.196;8.286;2022-08-26T06:28:49;11.07;;;7.17;;
5460;SDS011;2753;49.196;8.286;2022-08-26T06:31:15;9.47;;;7.17;;
5460;SDS011;2753;49.196;8.286;2022-08-26T06:33:41;10.07;;;7.03;;
5460;SDS011;2753;49.196;8.286;2022-08-26T06:36:07;17.60;;;8.00;;
5460;SDS011;2753;49.196;8.286;2022-08-26T06:38:33;13.83;;;7.43;;
5460;SDS011;2753;49.196;8.286;2022-08-26T06:40:59;17.07;;;8.60;;
5460;SDS011;2753;49.196;8.286;2022-08-26T06:43:25;13.10;;;7.57;;
5460;SDS011;2753;49.196;8.286;2022-08-26T06:46:02;10.10;;;7.33;;
5460;SDS011;2753;49.196;8.286;2022-08-26T06:48:29;10.17;;;6.70;;
5460;SDS011;2753;49.196;8.286;2022-08-26T06:53:27;13.00;;;7.40;;
5460;SDS011;2753;49.196;8.286;2022-08-26T06:55:53;10.83;;;6.90;;
5460;SDS011;2753;49.196;8.286;2022-08-26T06:58:18;12.93;;;7.23;;
5460;SDS011;2753;49.196;8.286;2022-08-26T07:00:44;12.87;;;7.90;;
5460;SDS011;2753;49.196;8.286;2022-08-26T07:03:10;15.67;;;7.47;;
5460;SDS011;2753;49.196;8.286;2022-08-26T07:05:36;11.40;;;7.13;;
5460;SDS011;2753;49.196;8.286;2022-08-26T07:08:02;13.60;;;7.30;;
5460;SDS011;2753;49.196;8.286;2022-08-26T07:10:29;15.33;;;8.13;;
5460;SDS011;2753;49.196;8.286;2022-08-26T07:12:55;12.07;;;7.57;;
5460;SDS011;2753;49.196;8.286;2022-08-26T07:15:21;11.63;;;7.17;;
5460;SDS011;2753;49.196;8.286;2022-08-26T07:17:47;10.60;;;6.23;;
5460;SDS011;2753;49.196;8.286;2022-08-26T07:20:13;9.53;;;6.30;;
5460;SDS011;2753;49.196;8.286;2022-08-26T07:22:39;11.50;;;6.30;;
5460;SDS011;2753;49.196;8.286;2022-08-26T07:25:05;5.83;;;5.30;;
5460;SDS011;2753;49.196;8.286;2022-08-26T07:27:33;6.80;;;5.53;;
5460;SDS011;2753;49.196;8.286;2022-08-26T07:30:00;12.27;;;6.57;;
5460;SDS011;2753;49.196;8.286;2022-08-26T07:32:26;8.20;;;5.90;;
5460;SDS011;2753;49.196;8.286;2022-08-26T07:34:51;11.93;;;6.70;;
5460;SDS011;2753;49.196;8.286;2022-08-26T07:37:17;13.23;;;6.53;;
5460;SDS011;2753;49.196;8.286;2022-08-26T07:39:43;8.87;;;6.40;;
5460;SDS011;2753;49.196;8.286;2022-08-26T07:42:10;8.60;;;6.63;;
5460;SDS011;2753;49.196;8.286;2022-08-26T07:44:38;9.00;;;6.30;;
5460;SDS011;2753;49.196;8.286;2022-08-26T07:47:04;10.43;;;6.43;;
5460;SDS011;2753;49.196;8.286;2022-08-26T07:49:31;24.17;;;6.57;;
5460;SDS011;2753;49.196;8.286;2022-08-26T07:51:57;9.63;;;6.33;;
5460;SDS011;2753;49.196;8.286;2022-08-26T07:54:23;7.60;;;6.37;;
5460;SDS011;2753;49.196;8.286;2022-08-26T07:56:49;12.67;;;7.23;;
5460;SDS011;2753;49.196;8.286;2022-08-26T07:59:15;7.40;;;5.83;;
5460;SDS011;2753;49.196;8.286;2022-08-26T08:01:42;11.47;;;6.23;;
5460;SDS011;2753;49.196;8.286;2022-08-26T08:04:08;20.10;;;6.63;;
5460;SDS011;2753;49.196;8.286;2022-08-26T08:06:34;7.67;;;6.07;;
5460;SDS011;2753;49.196;8.286;2022-08-26T08:09:02;12.07;;;6.80;;
5460;SDS011;2753;49.196;8.286;2022-08-26T08:11:28;10.97;;;5.40;;
5460;SDS011;2753;49.196;8.286;2022-08-26T08:13:55;13.87;;;6.37;;
5460;SDS011;2753;49.196;8.286;2022-08-26T08:16:25;9.70;;;6.77;;
5460;SDS011;2753;49.196;8.286;2022-08-26T08:18:52;8.00;;;6.40;;
5460;SDS011;2753;49.196;8.286;2022-08-26T08:21:18;11.27;;;6.73;;
5460;SDS011;2753;49.196;8.286;2022-08-26T08:23:44;13.20;;;6.90;;
5460;SDS011;2753;49.196;8.286;2022-08-26T08:26:10;9.97;;;7.10;;
5460;SDS011;2753;49.196;8.286;2022-08-26T08:28:36;12.10;;;6.13;;
5460;SDS011;2753;49.196;8.286;2022-08-26T08:31:03;7.23;;;6.57;;
5460;SDS011;2753;49.196;8.286;2022-08-26T08:33:29;10.73;;;6.80;;
5460;SDS011;2753;49.196;8.286;2022-08-26T08:35:57;15.00;;;6.73;;
5460;SDS011;2753;49.196;8.286;2022-08-26T08:38:24;11.57;;;7.20;;
5460;SDS011;2753;49.196;8.286;2022-08-26T08:40:49;7.23;;;6.50;;
5460;SDS011;2753;49.196;8.286;2022-08-26T08:43:31;19.20;;;6.70;;
5460;SDS011;2753;49.196;8.286;2022-08-26T08:46:09;11.03;;;6.53;;
5460;SDS011;2753;49.196;8.286;2022-08-26T08:48:40;15.90;;;7.17;;
5460;SDS011;2753;49.196;8.286;2022-08-26T08:51:17;8.07;;;6.70;;
5460;SDS011;2753;49.196;8.286;2022-08-26T08:53:48;11.03;;;7.03;;
5460;SDS011;2753;49.196;8.286;2022-08-26T09:07:47;15.23;;;6.93;;
5460;SDS011;2753;49.196;8.286;2022-08-26T09:12:57;15.47;;;7.57;;
5460;SDS011;2753;49.196;8.286;2022-08-26T09:18:08;9.20;;;7.20;;
5460;SDS011;2753;49.196;8.286;2022-08-26T09:20:57;7.90;;;6.10;;
5460;SDS011;2753;49.196;8.286;2022-08-26T09:23:29;18.10;;;6.43;;
5460;SDS011;2753;49.196;8.286;2022-08-26T09:25:57;8.50;;;6.50;;
5460;SDS011;2753;49.196;8.286;2022-08-26T09:28:25;10.27;;;6.70;;
5460;SDS011;2753;49.196;8.286;2022-08-26T09:33:39;12.13;;;6.40;;
5460;SDS011;2753;49.196;8.286;2022-08-26T09:38:57;11.60;;;7.43;;
5460;SDS011;2753;49.196;8.286;2022-08-26T09:41:29;12.40;;;7.07;;
5460;SDS011;2753;49.196;8.286;2022-08-26T09:44:11;12.37;;;7.03;;
5460;SDS011;2753;49.196;8.286;2022-08-26T09:46:40;11.70;;;6.60;;
5460;SDS011;2753;49.196;8.286;2022-08-26T09:52:06;14.83;;;6.47;;
5460;SDS011;2753;49.196;8.286;2022-08-26T09:54:39;19.97;;;7.50;;
5460;SDS011;2753;49.196;8.286;2022-08-26T09:59:45;12.50;;;7.40;;
5460;SDS011;2753;49.196;8.286;2022-08-26T10:02:53;11.43;;;6.47;;
5460;SDS011;2753;49.196;8.286;2022-08-26T10:05:04;8.90;;;7.03;;
5460;SDS011;2753;49.196;8.286;2022-08-26T10:07:34;13.03;;;7.40;;
5460;SDS011;2753;49.196;8.286;2022-08-26T10:10:12;16.83;;;6.87;;
5460;SDS011;2753;49.196;8.286;2022-08-26T10:12:47;14.33;;;7.30;;
5460;SDS011;2753;49.196;8.286;2022-08-26T10:15:18;10.93;;;6.13;;
5460;SDS011;2753;49.196;8.286;2022-08-26T10:20:17;12.00;;;6.60;;
5460;SDS011;2753;49.196;8.286;2022-08-26T10:25:30;11.73;;;6.47;;
5460;SDS011;2753;49.196;8.286;2022-08-26T10:30:58;14.03;;;6.20;;
5460;SDS011;2753;49.196;8.286;2022-08-26T10:33:28;9.03;;;5.97;;
5460;SDS011;2753;49.196;8.286;2022-08-26T10:35:55;12.43;;;6.77;;
5460;SDS011;2753;49.196;8.286;2022-08-26T10:38:27;11.43;;;7.20;;
5460;SDS011;2753;49.196;8.286;2022-08-26T10:41:01;11.50;;;6.43;;
5460;SDS011;2753;49.196;8.286;2022-08-26T10:43:29;7.53;;;5.97;;
5460;SDS011;2753;49.196;8.286;2022-08-26T10:46:02;10.40;;;6.17;;
5460;SDS011;2753;49.196;8.286;2022-08-26T10:51:14;14.17;;;6.10;;
5460;SDS011;2753;49.196;8.286;2022-08-26T10:53:46;11.13;;;5.70;;
5460;SDS011;2753;49.196;8.286;2022-08-26T11:07:41;15.40;;;6.03;;
5460;SDS011;2753;49.196;8.286;2022-08-26T11:20:45;14.97;;;7.03;;
5460;SDS011;2753;49.196;8.286;2022-08-26T11:28:34;14.47;;;5.67;;
5460;SDS011;2753;49.196;8.286;2022-08-26T11:31:00;11.50;;;6.47;;
5460;SDS011;2753;49.196;8.286;2022-08-26T11:33:43;9.93;;;5.43;;
5460;SDS011;2753;49.196;8.286;2022-08-26T11:39:01;12.47;;;6.27;;
5460;SDS011;2753;49.196;8.286;2022-08-26T11:41:37;14.90;;;6.37;;
5460;SDS011;2753;49.196;8.286;2022-08-26T11:44:06;16.30;;;6.30;;
5460;SDS011;2753;49.196;8.286;2022-08-26T11:46:33;13.00;;;6.30;;
5460;SDS011;2753;49.196;8.286;2022-08-26T11:49:05;9.97;;;6.57;;
5460;SDS011;2753;49.196;8.286;2022-08-26T11:51:31;16.23;;;7.00;;
5460;SDS011;2753;49.196;8.286;2022-08-26T11:56:40;10.30;;;6.70;;
5460;SDS011;2753;49.196;8.286;2022-08-26T11:59:09;11.50;;;5.67;;
5460;SDS011;2753;49.196;8.286;2022-08-26T12:01:41;17.00;;;6.27;;
5460;SDS011;2753;49.196;8.286;2022-08-26T12:04:10;17.53;;;6.80;;
5460;SDS011;2753;49.196;8.286;2022-08-26T12:06:46;8.20;;;6.03;;
5460;SDS011;2753;49.196;8.286;2022-08-26T12:09:23;11.10;;;5.27;;
5460;SDS011;2753;49.196;8.286;2022-08-26T12:14:42;8.50;;;5.97;;
5460;SDS011;2753;49.196;8.286;2022-08-26T12:17:14;11.57;;;5.90;;
5460;SDS011;2753;49.196;8.286;2022-08-26T12:19:41;8.60;;;6.13;;
5460;SDS011;2753;49.196;8.286;2022-08-26T12:22:24;8.43;;;6.33;;
5460;SDS011;2753;49.196;8.286;2022-08-26T12:27:22;12.93;;;5.37;;
5460;SDS011;2753;49.196;8.286;2022-08-26T12:30:10;8.70;;;4.93;;
5460;SDS011;2753;49.196;8.286;2022-08-26T12:32:36;7.73;;;5.30;;
5460;SDS011;2753;49.196;8.286;2022-08-26T12:35:15;9.67;;;5.57;;
5460;SDS011;2753;49.196;8.286;2022-08-26T12:37:47;8.47;;;4.93;;
5460;SDS011;2753;49.196;8.286;2022-08-26T12:43:10;6.10;;;5.47;;
5460;SDS011;2753;49.196;8.286;2022-08-26T12:45:53;7.80;;;4.90;;
5460;SDS011;2753;49.196;8.286;2022-08-26T12:48:27;12.33;;;5.03;;
5460;SDS011;2753;49.196;8.286;2022-08-26T12:50:55;7.60;;;5.30;;
5460;SDS011;2753;49.196;8.286;2022-08-26T12:53:29;5.40;;;4.90;;
5460;SDS011;2753;49.196;8.286;2022-08-26T12:55:58;8.30;;;5.77;;
5460;SDS011;2753;49.196;8.286;2022-08-26T12:58:37;10.97;;;6.33;;
5460;SDS011;2753;49.196;8.286;2022-08-26T13:08:34;8.53;;;6.30;;
5460;SDS011;2753;49.196;8.286;2022-08-26T13:11:06;10.47;;;5.70;;
5460;SDS011;2753;49.196;8.286;2022-08-26T13:13:35;9.30;;;6.53;;
5460;SDS011;2753;49.196;8.286;2022-08-26T13:16:01;10.33;;;4.90;;
5460;SDS011;2753;49.196;8.286;2022-08-26T13:18:27;10.77;;;5.90;;
5460;SDS011;2753;49.196;8.286;2022-08-26T13:20:54;7.50;;;5.37;;
5460;SDS011;2753;49.196;8.286;2022-08-26T13:23:20;8.40;;;5.37;;
5460;SDS011;2753;49.196;8.286;2022-08-26T13:25:48;7.07;;;5.90;;
5460;SDS011;2753;49.196;8.286;2022-08-26T13:28:14;9.33;;;6.07;;
5460;SDS011;2753;49.196;8.286;2022-08-26T13:30:40;8.20;;;5.57;;
5460;SDS011;2753;49.196;8.286;2022-08-26T13:33:08;14.50;;;6.50;;
5460;SDS011;2753;49.196;8.286;2022-08-26T13:35:34;7.37;;;5.47;;
5460;SDS011;2753;49.196;8.286;2022-08-26T13:38:00;14.00;;;6.47;;
5460;SDS011;2753;49.196;8.286;2022-08-26T13:40:25;14.10;;;6.30;;
5460;SDS011;2753;49.196;8.286;2022-08-26T13:42:51;11.47;;;6.50;;
5460;SDS011;2753;49.196;8.286;2022-08-26T13:45:17;18.57;;;6.20;;
5460;SDS011;2753;49.196;8.286;2022-08-26T13:47:42;14.33;;;5.70;;
5460;SDS011;2753;49.196;8.286;2022-08-26T13:50:08;12.10;;;5.80;;
5460;SDS011;2753;49.196;8.286;2022-08-26T13:52:34;7.63;;;5.40;;
5460;SDS011;2753;49.196;8.286;2022-08-26T13:55:00;15.23;;;6.17;;
5460;SDS011;2753;49.196;8.286;2022-08-26T13:57:26;7.80;;;5.03;;
5460;SDS011;2753;49.196;8.286;2022-08-26T13:59:54;12.17;;;5.20;;
5460;SDS011;2753;49.196;8.286;2022-08-26T14:02:21;6.30;;;5.40;;
5460;SDS011;2753;49.196;8.286;2022-08-26T14:04:47;23.03;;;5.50;;
5460;SDS011;2753;49.196;8.286;2022-08-26T14:07:12;6.90;;;5.60;;
5460;SDS011;2753;49.196;8.286;2022-08-26T14:09:38;15.17;;;6.30;;
5460;SDS011;2753;49.196;8.286;2022-08-26T14:12:04;17.43;;;6.50;;
5460;SDS011;2753;49.196;8.286;2022-08-26T14:14:30;15.73;;;5.73;;
5460;SDS011;2753;49.196;8.286;2022-08-26T14:16:56;31.00;;;6.93;;
5460;SDS011;2753;49.196;8.286;2022-08-26T14:19:22;10.30;;;6.37;;
5460;SDS011;2753;49.196;8.286;2022-08-26T14:21:47;13.73;;;5.17;;
5460;SDS011;2753;49.196;8.286;2022-08-26T14:24:13;13.30;;;5.63;;
5460;SDS011;2753;49.196;8.286;2022-08-26T14:26:38;28.37;;;6.53;;
5460;SDS011;2753;49.196;8.286;2022-08-26T14:29:04;17.73;;;6.43;;
5460;SDS011;2753;49.196;8.286;2022-08-26T14:31:30;22.00;;;6.60;;
5460;SDS011;2753;49.196;8.286;2022-08-26T14:34:00;17.83;;;6.60;;
5460;SDS011;2753;49.196;8.286;2022-08-26T14:36:28;16.30;;;7.23;;
5460;SDS011;2753;49.196;8.286;2022-08-26T14:38:56;12.53;;;5.97;;
5460;SDS011;2753;49.196;8.286;2022-08-26T14:41:26;17.90;;;5.90;;
5460;SDS011;2753;49.196;8.286;2022-08-26T14:43:54;12.27;;;6.50;;
5460;SDS011;2753;49.196;8.286;2022-08-26T14:46:29;5.90;;;5.40;;
5460;SDS011;2753;49.196;8.286;2022-08-26T14:48:58;9.30;;;6.40;;
5460;SDS011;2753;49.196;8.286;2022-08-26T14:51:25;15.73;;;5.80;;
5460;SDS011;2753;49.196;8.286;2022-08-26T14:53:51;27.40;;;6.67;;
5460;SDS011;2753;49.196;8.286;2022-08-26T14:56:36;15.00;;;5.70;;
5460;SDS011;2753;49.196;8.286;2022-08-26T14:59:21;12.30;;;5.20;;
5460;SDS011;2753;49.196;8.286;2022-08-26T15:01:49;15.10;;;5.00;;
5460;SDS011;2753;49.196;8.286;2022-08-26T15:04:15;6.47;;;5.87;;
5460;SDS011;2753;49.196;8.286;2022-08-26T15:06:42;7.23;;;5.10;;
5460;SDS011;2753;49.196;8.286;2022-08-26T15:09:08;5.37;;;4.97;;
5460;SDS011;2753;49.196;8.286;2022-08-26T15:11:34;7.73;;;5.27;;
5460;SDS011;2753;49.196;8.286;2022-08-26T15:14:00;16.70;;;5.20;;
5460;SDS011;2753;49.196;8.286;2022-08-26T15:16:26;5.50;;;4.70;;
5460;SDS011;2753;49.196;8.286;2022-08-26T15:18:53;5.00;;;4.60;;
5460;SDS011;2753;49.196;8.286;2022-08-26T15:21:19;7.97;;;5.40;;
5460;SDS011;2753;49.196;8.286;2022-08-26T15:23:45;9.00;;;5.50;;
5460;SDS011;2753;49.196;8.286;2022-08-26T15:26:12;11.30;;;5.60;;
5460;SDS011;2753;49.196;8.286;2022-08-26T15:28:39;14.23;;;5.97;;
5460;SDS011;2753;49.196;8.286;2022-08-26T15:31:05;6.23;;;5.57;;
5460;SDS011;2753;49.196;8.286;2022-08-26T15:33:32;6.13;;;4.90;;
5460;SDS011;2753;49.196;8.286;2022-08-26T15:35:59;10.57;;;5.20;;
5460;SDS011;2753;49.196;8.286;2022-08-26T15:38:32;6.30;;;5.70;;
5460;SDS011;2753;49.196;8.286;2022-08-26T15:41:00;12.90;;;5.60;;
5460;SDS011;2753;49.196;8.286;2022-08-26T15:43:27;6.30;;;5.07;;
5460;SDS011;2753;49.196;8.286;2022-08-26T15:45:53;6.00;;;5.27;;
5460;SDS011;2753;49.196;8.286;2022-08-26T15:48:20;4.87;;;4.50;;
5460;SDS011;2753;49.196;8.286;2022-08-26T15:53:14;6.07;;;5.20;;
5460;SDS011;2753;49.196;8.286;2022-08-26T15:55:40;7.73;;;5.03;;
5460;SDS011;2753;49.196;8.286;2022-08-26T15:58:06;11.40;;;5.50;;
5460;SDS011;2753;49.196;8.286;2022-08-26T16:00:31;10.03;;;5.73;;
5460;SDS011;2753;49.196;8.286;2022-08-26T16:02:57;6.13;;;5.53;;
5460;SDS011;2753;49.196;8.286;2022-08-26T16:05:23;12.03;;;6.70;;
5460;SDS011;2753;49.196;8.286;2022-08-26T16:07:48;7.77;;;6.30;;
5460;SDS011;2753;49.196;8.286;2022-08-26T16:10:14;12.20;;;7.27;;
5460;SDS011;2753;49.196;8.286;2022-08-26T16:12:39;11.80;;;6.90;;
5460;SDS011;2753;49.196;8.286;2022-08-26T16:15:05;21.33;;;6.60;;
5460;SDS011;2753;49.196;8.286;2022-08-26T16:17:31;9.53;;;6.83;;
5460;SDS011;2753;49.196;8.286;2022-08-26T16:19:57;8.63;;;6.63;;
5460;SDS011;2753;49.196;8.286;2022-08-26T16:22:23;9.10;;;7.10;;
5460;SDS011;2753;49.196;8.286;2022-08-26T16:24:54;14.30;;;8.37;;
5460;SDS011;2753;49.196;8.286;2022-08-26T16:27:21;11.23;;;8.40;;
5460;SDS011;2753;49.196;8.286;2022-08-26T16:29:46;10.03;;;8.00;;
5460;SDS011;2753;49.196;8.286;2022-08-26T16:32:12;13.83;;;9.30;;
5460;SDS011;2753;49.196;8.286;2022-08-26T16:34:38;20.17;;;10.50;;
5460;SDS011;2753;49.196;8.286;2022-08-26T16:37:03;16.73;;;9.90;;
5460;SDS011;2753;49.196;8.286;2022-08-26T16:39:29;13.73;;;9.10;;
5460;SDS011;2753;49.196;8.286;2022-08-26T16:41:55;13.17;;;10.37;;
5460;SDS011;2753;49.196;8.286;2022-08-26T16:44:20;17.33;;;11.00;;
5460;SDS011;2753;49.196;8.286;2022-08-26T16:46:46;13.47;;;10.90;;
5460;SDS011;2753;49.196;8.286;2022-08-26T16:49:12;11.37;;;10.03;;
5460;SDS011;2753;49.196;8.286;2022-08-26T16:51:38;12.80;;;9.90;;